createdAt,value
2023-02-03T00:02:03.031Z,101424.91
2023-02-03T00:04:29.862Z,101430.31
2023-02-03T00:06:56.752Z,101425.19
2023-02-03T00:09:23.626Z,101423.47
2023-02-03T00:11:50.499Z,101418.28
2023-02-03T00:14:17.333Z,101407.78
2023-02-03T00:16:44.172Z,101414.88
2023-02-03T00:19:10.992Z,101418.53
2023-02-03T00:21:37.768Z,101415.03
2023-02-03T00:24:04.832Z,101401.03
2023-02-03T00:26:31.636Z,101385.19
2023-02-03T00:29:00.325Z,101379.94
2023-02-03T00:31:27.296Z,101384.38
2023-02-03T00:33:56.733Z,101383.56
2023-02-03T00:36:25.187Z,101392.41
2023-02-03T00:38:52.089Z,101395.97
2023-02-03T00:41:20.237Z,101399.53
2023-02-03T00:43:47.917Z,101396.88
2023-02-03T00:46:15.480Z,101386.34
2023-02-03T00:48:42.326Z,101381.97
2023-02-03T00:51:09.116Z,101393.44
2023-02-03T00:53:35.931Z,101384.66
2023-02-03T00:56:02.726Z,101379.41
2023-02-03T00:58:29.514Z,101364.38
2023-02-03T01:00:59.466Z,101380.31
2023-02-03T01:03:26.359Z,101374.13
2023-02-03T01:05:53.132Z,101383.00
2023-02-03T01:08:20.056Z,101371.59
2023-02-03T01:10:46.965Z,101359.22
2023-02-03T01:13:13.790Z,101361.00
2023-02-03T01:15:47.930Z,101377.75
2023-02-03T01:18:15.157Z,101376.00
2023-02-03T01:20:41.985Z,101359.28
2023-02-03T01:23:08.777Z,101374.25
2023-02-03T01:25:36.072Z,101387.56
2023-02-03T01:28:02.948Z,101376.09
2023-02-03T01:30:30.021Z,101372.56
2023-02-03T01:32:57.051Z,101377.91
2023-02-03T01:35:23.810Z,101370.88
2023-02-03T01:37:50.582Z,101361.16
2023-02-03T01:40:17.881Z,101369.13
2023-02-03T01:42:44.653Z,101371.78
2023-02-03T01:45:13.449Z,101349.72
2023-02-03T01:47:54.671Z,101362.09
2023-02-03T01:50:29.619Z,101359.47
2023-02-03T01:53:03.174Z,101349.75
2023-02-03T01:55:40.617Z,101342.72
2023-02-03T01:58:21.038Z,101337.44
2023-02-03T02:00:49.728Z,101325.97
2023-02-03T02:03:20.133Z,101326.88
2023-02-03T02:06:08.123Z,101326.00
2023-02-03T02:08:36.762Z,101326.88
2023-02-03T02:11:05.493Z,101331.28
2023-02-03T02:13:37.137Z,101320.72
2023-02-03T02:16:37.649Z,101300.44
2023-02-03T02:19:38.820Z,101304.81
2023-02-03T02:22:21.425Z,101305.69
2023-02-03T02:25:31.474Z,101303.94
2023-02-03T02:28:22.015Z,101280.13
2023-02-03T02:31:49.790Z,101270.41
2023-02-03T02:35:00.055Z,101276.56
2023-02-03T02:37:53.792Z,101265.09
2023-02-03T02:40:37.015Z,101262.47
2023-02-03T02:43:08.502Z,101264.25
2023-02-03T02:45:48.682Z,101262.47
2023-02-03T02:48:50.474Z,101261.66
2023-02-03T02:51:18.217Z,101254.56
2023-02-03T02:53:51.610Z,101237.81
2023-02-03T02:56:19.681Z,101216.66
2023-02-03T02:58:49.851Z,101225.50
2023-02-03T03:01:17.881Z,101219.31
2023-02-03T03:03:45.253Z,101236.09
2023-02-03T03:06:31.812Z,101241.41
2023-02-03T03:09:17.098Z,101242.31
2023-02-03T03:11:54.471Z,101244.97
2023-02-03T03:14:26.569Z,101245.88
2023-02-03T03:17:18.489Z,101255.56
2023-02-03T03:19:55.066Z,101256.47
2023-02-03T03:22:29.617Z,101251.22
2023-02-03T03:25:04.405Z,101233.53
2023-02-03T03:27:37.985Z,101229.13
2023-02-03T03:30:43.160Z,101221.22
2023-02-03T03:33:10.324Z,101226.47
2023-02-03T03:35:52.207Z,101224.75
2023-02-03T03:38:34.535Z,101211.53
2023-02-03T03:41:24.435Z,101218.59
2023-02-03T03:43:56.778Z,101209.75
2023-02-03T03:46:35.986Z,101213.31
2023-02-03T03:49:05.193Z,101195.66
2023-02-03T03:51:45.155Z,101189.50
2023-02-03T03:54:16.059Z,101185.97
2023-02-03T03:57:07.159Z,101201.88
2023-02-03T03:59:39.572Z,101204.50
2023-02-03T04:02:07.018Z,101190.41
2023-02-03T04:04:36.713Z,101192.16
2023-02-03T04:07:03.643Z,101188.63
2023-02-03T04:09:30.556Z,101182.47
2023-02-03T04:12:03.139Z,101171.03
2023-02-03T04:14:33.580Z,101177.22
2023-02-03T04:17:01.067Z,101178.94
2023-02-03T04:19:28.043Z,101180.75
2023-02-03T04:21:54.822Z,101172.81
2023-02-03T04:24:21.834Z,101171.03
2023-02-03T04:26:48.645Z,101178.13
2023-02-03T04:29:15.436Z,101161.34
2023-02-03T04:31:42.250Z,101182.59
2023-02-03T04:34:09.060Z,101187.88
2023-02-03T04:36:35.844Z,101181.72
2023-02-03T04:39:02.671Z,101183.47
2023-02-03T04:41:29.458Z,101192.31
2023-02-03T04:43:56.220Z,101186.16
2023-02-03T04:46:23.030Z,101180.88
2023-02-03T04:48:49.794Z,101171.16
2023-02-03T04:51:16.599Z,101171.19
2023-02-03T04:53:43.360Z,101176.50
2023-02-03T04:56:10.110Z,101165.00
2023-02-03T04:58:37.271Z,101160.59
2023-02-03T05:01:09.180Z,101157.94
2023-02-03T05:03:36.437Z,101148.25
2023-02-03T05:06:04.232Z,101143.84
2023-02-03T05:08:31.293Z,101138.56
2023-02-03T05:11:00.692Z,101146.50
2023-02-03T05:13:28.777Z,101131.50
2023-02-03T05:15:55.552Z,101143.00
2023-02-03T05:18:22.319Z,101121.81
2023-02-03T05:20:49.078Z,101114.75
2023-02-03T05:23:15.848Z,101111.22
2023-02-03T05:25:44.202Z,101115.63
2023-02-03T05:28:11.032Z,101104.16
2023-02-03T05:30:38.389Z,101104.16
2023-02-03T05:33:05.216Z,101082.09
2023-02-03T05:35:32.010Z,101081.22
2023-02-03T05:37:59.492Z,101080.31
2023-02-03T05:40:45.206Z,101071.50
2023-02-03T05:43:12.480Z,101067.97
2023-02-03T05:45:39.539Z,101082.97
2023-02-03T05:48:07.349Z,101102.41
2023-02-03T05:50:38.495Z,101102.41
2023-02-03T05:53:06.862Z,101109.50
2023-02-03T05:55:34.376Z,101100.66
2023-02-03T05:58:01.260Z,101087.41
2023-02-03T06:00:28.955Z,101090.94
2023-02-03T06:02:58.866Z,101102.41
2023-02-03T06:05:26.434Z,101088.28
2023-02-03T06:07:54.000Z,101102.41
2023-02-03T06:10:21.665Z,101106.84
2023-02-03T06:12:49.429Z,101107.72
2023-02-03T06:15:16.343Z,101110.38
2023-02-03T06:17:48.234Z,101103.31
2023-02-03T06:20:18.159Z,101107.72
2023-02-03T06:22:45.077Z,101104.19
2023-02-03T06:25:14.249Z,101098.91
2023-02-03T06:27:41.300Z,101098.91
2023-02-03T06:30:09.096Z,101097.13
2023-02-03T06:32:35.993Z,101113.91
2023-02-03T06:35:02.863Z,101091.81
2023-02-03T06:37:29.662Z,101091.81
2023-02-03T06:39:56.436Z,101104.19
2023-02-03T06:42:23.255Z,101082.97
2023-02-03T06:44:50.061Z,101076.78
2023-02-03T06:47:16.825Z,101093.56
2023-02-03T06:49:43.601Z,101092.69
2023-02-03T06:52:10.396Z,101069.72
2023-02-03T06:54:37.167Z,101073.22
2023-02-03T06:57:04.127Z,101059.09
2023-02-03T06:59:30.886Z,101056.47
2023-02-03T07:01:57.975Z,101061.75
2023-02-03T07:04:24.836Z,101045.81
2023-02-03T07:06:51.608Z,101044.97
2023-02-03T07:09:18.429Z,101042.28
2023-02-03T07:11:45.183Z,101044.94
2023-02-03T07:14:11.959Z,101040.53
2023-02-03T07:16:39.412Z,101040.53
2023-02-03T07:19:06.350Z,101059.09
2023-02-03T07:21:33.159Z,101033.47
2023-02-03T07:23:59.979Z,101043.19
2023-02-03T07:26:26.794Z,101044.09
2023-02-03T07:28:54.410Z,101042.31
2023-02-03T07:31:21.785Z,101052.00
2023-02-03T07:33:48.934Z,101040.53
2023-02-03T07:36:15.731Z,101045.81
2023-02-03T07:38:42.517Z,101051.13
2023-02-03T07:41:09.402Z,101045.88
2023-02-03T07:43:36.482Z,101032.63
2023-02-03T07:46:03.590Z,101037.91
2023-02-03T07:48:30.416Z,101025.56
2023-02-03T07:50:57.249Z,101027.34
2023-02-03T07:53:24.068Z,101017.63
2023-02-03T07:55:51.024Z,101029.97
2023-02-03T07:58:17.857Z,101019.38
2023-02-03T08:00:45.078Z,101037.94
2023-02-03T08:03:11.941Z,101027.34
2023-02-03T08:05:38.709Z,101031.75
2023-02-03T08:08:05.614Z,101022.03
2023-02-03T08:10:32.605Z,101017.63
2023-02-03T08:12:59.412Z,101031.75
2023-02-03T08:15:26.171Z,101022.94
2023-02-03T08:17:52.951Z,101020.31
2023-02-03T08:20:19.891Z,101020.31
2023-02-03T08:22:46.828Z,101029.16
2023-02-03T08:25:13.641Z,101024.78
2023-02-03T08:27:41.420Z,101026.50
2023-02-03T08:30:12.335Z,101009.75
2023-02-03T08:32:39.143Z,101037.13
2023-02-03T08:35:06.678Z,101025.66
2023-02-03T08:37:34.255Z,101023.03
2023-02-03T08:40:01.055Z,101036.25
2023-02-03T08:42:28.048Z,101033.63
2023-02-03T08:44:54.901Z,101029.22
2023-02-03T08:47:22.442Z,101019.50
2023-02-03T08:49:49.239Z,101012.47
2023-02-03T08:52:18.810Z,101013.34
2023-02-03T08:54:46.899Z,101008.94
2023-02-03T08:57:14.538Z,101010.69
2023-02-03T08:59:43.673Z,100998.34
2023-02-03T09:02:17.514Z,101013.34
2023-02-03T09:04:46.671Z,101008.06
2023-02-03T09:07:13.925Z,101023.94
2023-02-03T09:09:40.739Z,101032.81
2023-02-03T09:12:07.794Z,101034.56
2023-02-03T09:14:35.222Z,101022.19
2023-02-03T09:17:03.965Z,101021.31
2023-02-03T09:19:34.709Z,101028.38
2023-02-03T09:22:02.397Z,101030.16
2023-02-03T09:24:29.323Z,101018.69
2023-02-03T09:26:56.762Z,101031.06
2023-02-03T09:29:23.624Z,101021.34
2023-02-03T09:31:53.724Z,101016.91
2023-02-03T09:34:21.729Z,100997.50
2023-02-03T09:36:48.704Z,101003.69
2023-02-03T09:39:15.730Z,100993.97
2023-02-03T09:42:25.234Z,100992.19
2023-02-03T09:45:14.995Z,101019.56
2023-02-03T09:47:44.309Z,101011.66
2023-02-03T09:50:34.045Z,101020.47
2023-02-03T09:53:12.238Z,101008.09
2023-02-03T09:55:44.126Z,101007.22
2023-02-03T09:58:14.725Z,101014.28
2023-02-03T10:00:50.870Z,101009.00
2023-02-03T10:03:51.846Z,101024.00
2023-02-03T10:06:39.838Z,101026.63
2023-02-03T10:09:43.395Z,101019.59
2023-02-03T10:12:45.039Z,101031.97
2023-02-03T10:15:22.161Z,101022.22
2023-02-03T10:18:01.220Z,101031.94
2023-02-03T10:20:45.109Z,101030.16
2023-02-03T10:23:27.495Z,101038.13
2023-02-03T10:25:57.723Z,101040.78
2023-02-03T10:28:30.835Z,101069.06
2023-02-03T10:31:01.765Z,101077.00
2023-02-03T10:33:31.662Z,101091.13
2023-02-03T10:36:22.773Z,101081.44
2023-02-03T10:38:58.641Z,101092.03
2023-02-03T10:41:25.728Z,101074.34
2023-02-03T10:43:53.823Z,101091.13
2023-02-03T10:46:32.343Z,101099.94
2023-02-03T10:48:59.282Z,101111.38
2023-02-03T10:51:32.299Z,101109.59
2023-02-03T10:54:00.367Z,101109.59
2023-02-03T10:56:32.542Z,101110.50
2023-02-03T10:59:00.784Z,101092.84
2023-02-03T11:01:47.861Z,101104.31
2023-02-03T11:04:32.096Z,101113.16
2023-02-03T11:07:06.177Z,101114.91
2023-02-03T11:09:40.604Z,101118.47
2023-02-03T11:12:20.156Z,101107.88
2023-02-03T11:14:53.270Z,101123.81
2023-02-03T11:17:23.623Z,101121.19
2023-02-03T11:19:53.496Z,101118.56
2023-02-03T11:22:37.473Z,101127.44
2023-02-03T11:25:17.339Z,101133.63
2023-02-03T11:27:44.635Z,101115.94
2023-02-03T11:30:27.168Z,101118.63
2023-02-03T11:32:54.427Z,101112.44
2023-02-03T11:35:33.501Z,101123.97
2023-02-03T11:38:02.467Z,101139.88
2023-02-03T11:40:34.155Z,101135.47
2023-02-03T11:43:05.903Z,101145.19
2023-02-03T11:45:43.436Z,101144.38
2023-02-03T11:48:39.929Z,101142.59
2023-02-03T11:51:51.881Z,101141.72
2023-02-03T11:54:43.001Z,101133.75
2023-02-03T11:57:39.878Z,101144.34
2023-02-03T12:00:27.865Z,101125.78
2023-02-03T12:03:35.280Z,101138.16
2023-02-03T12:06:48.267Z,101143.47
2023-02-03T12:09:57.021Z,101146.13
2023-02-03T12:12:48.968Z,101147.00
2023-02-03T12:15:46.984Z,101137.31
2023-02-03T12:18:31.844Z,101144.34
2023-02-03T12:21:18.684Z,101155.88
2023-02-03T12:24:33.083Z,101177.97
2023-02-03T12:27:29.294Z,101174.41
2023-02-03T12:30:27.734Z,101183.28
2023-02-03T12:32:59.999Z,101183.25
2023-02-03T12:35:34.991Z,101182.41
2023-02-03T12:38:12.145Z,101174.44
2023-02-03T12:40:58.030Z,101195.69
2023-02-03T12:43:39.708Z,101199.22
2023-02-03T12:46:31.204Z,101195.69
2023-02-03T12:49:13.731Z,101201.88
2023-02-03T12:52:00.556Z,101196.56
2023-02-03T12:54:55.004Z,101211.59
2023-02-03T12:57:27.255Z,101208.94
2023-02-03T13:00:29.987Z,101199.22
2023-02-03T13:03:14.055Z,101192.13
2023-02-03T13:06:15.194Z,101189.47
2023-02-03T13:08:53.402Z,101194.75
2023-02-03T13:11:41.080Z,101185.06
2023-02-03T13:14:26.371Z,101197.44
2023-02-03T13:17:23.381Z,101189.50
2023-02-03T13:19:55.057Z,101194.78
2023-02-03T13:22:24.188Z,101191.28
2023-02-03T13:25:15.172Z,101189.50
2023-02-03T13:27:59.885Z,101184.19
2023-02-03T13:30:31.029Z,101209.81
2023-02-03T13:33:48.401Z,101204.53
2023-02-03T13:36:41.578Z,101201.84
2023-02-03T13:39:47.928Z,101193.88
2023-02-03T13:42:28.755Z,101197.41
2023-02-03T13:45:23.919Z,101197.41
2023-02-03T13:47:56.206Z,101197.41
2023-02-03T13:50:28.994Z,101198.28
2023-02-03T13:53:15.332Z,101200.06
2023-02-03T13:56:03.982Z,101202.72
2023-02-03T13:58:35.291Z,101202.72
2023-02-03T14:01:30.261Z,101203.63
2023-02-03T14:03:57.966Z,101210.69
2023-02-03T14:06:52.456Z,101224.81
2023-02-03T14:09:31.610Z,101217.78
2023-02-03T14:12:20.155Z,101214.22
2023-02-03T14:14:53.088Z,101228.38
2023-02-03T14:17:42.458Z,101237.22
2023-02-03T14:20:41.842Z,101235.44
2023-02-03T14:23:18.226Z,101232.78
2023-02-03T14:26:03.673Z,101244.31
2023-02-03T14:28:44.192Z,101254.91
2023-02-03T14:31:25.180Z,101260.22
2023-02-03T14:34:05.867Z,101261.09
2023-02-03T14:36:44.444Z,101260.22
2023-02-03T14:39:20.420Z,101261.13
2023-02-03T14:41:59.292Z,101276.13
2023-02-03T14:45:03.141Z,101270.78
2023-02-03T14:47:32.483Z,101277.00
2023-02-03T14:50:17.322Z,101272.56
2023-02-03T14:52:57.867Z,101281.41
2023-02-03T14:55:52.527Z,101291.13
2023-02-03T14:58:44.633Z,101290.22
2023-02-03T15:01:36.408Z,101295.53
2023-02-03T15:04:12.491Z,101318.50
2023-02-03T15:06:45.420Z,101322.06
2023-02-03T15:09:51.451Z,101311.44
2023-02-03T15:12:27.086Z,101312.28
2023-02-03T15:15:28.981Z,101314.94
2023-02-03T15:18:20.375Z,101293.69
2023-02-03T15:20:47.885Z,101315.81
2023-02-03T15:23:26.292Z,101322.00
2023-02-03T15:26:02.694Z,101319.31
2023-02-03T15:28:30.650Z,101321.06
2023-02-03T15:31:26.697Z,101310.47
2023-02-03T15:33:56.616Z,101327.25
2023-02-03T15:36:56.321Z,101325.47
2023-02-03T15:39:57.366Z,101349.31
2023-02-03T15:42:37.100Z,101342.22
2023-02-03T15:45:37.783Z,101351.03
2023-02-03T15:48:29.583Z,101344.81
2023-02-03T15:51:07.183Z,101363.38
2023-02-03T15:53:48.206Z,101359.84
2023-02-03T15:56:40.857Z,101367.75
2023-02-03T15:59:33.204Z,101379.22
2023-02-03T16:02:06.663Z,101388.94
2023-02-03T16:04:33.752Z,101395.09
2023-02-03T16:07:00.596Z,101394.22
2023-02-03T16:09:41.599Z,101410.09
2023-02-03T16:12:27.598Z,101411.00
2023-02-03T16:14:57.230Z,101408.31
2023-02-03T16:17:39.108Z,101422.47
2023-02-03T16:20:11.988Z,101423.31
2023-02-03T16:23:09.007Z,101429.47
2023-02-03T16:25:36.212Z,101411.78
2023-02-03T16:28:28.277Z,101418.88
2023-02-03T16:31:33.968Z,101417.03
2023-02-03T16:34:21.763Z,101427.59
2023-02-03T16:37:07.051Z,101428.44
2023-02-03T16:39:52.407Z,101422.19
2023-02-03T16:42:39.688Z,101431.88
2023-02-03T16:45:36.510Z,101427.47
2023-02-03T16:48:23.087Z,101436.22
2023-02-03T16:50:51.840Z,101435.38
2023-02-03T16:53:24.176Z,101423.91
2023-02-03T16:55:54.364Z,101409.72
2023-02-03T16:58:21.150Z,101410.66
2023-02-03T17:00:51.347Z,101409.78
2023-02-03T17:03:24.675Z,101411.56
2023-02-03T17:05:52.264Z,101411.56
2023-02-03T17:08:22.508Z,101410.69
2023-02-03T17:10:49.881Z,101419.50
2023-02-03T17:13:19.478Z,101405.31
2023-02-03T17:15:52.770Z,101438.88
2023-02-03T17:18:20.519Z,101420.34
2023-02-03T17:20:47.788Z,101430.91
2023-02-03T17:23:16.485Z,101430.91
2023-02-03T17:25:49.258Z,101434.44
2023-02-03T17:28:16.341Z,101429.13
2023-02-03T17:30:43.218Z,101430.03
2023-02-03T17:33:13.252Z,101442.38
2023-02-03T17:35:42.153Z,101433.56
2023-02-03T17:38:10.413Z,101438.81
2023-02-03T17:54:29.531Z,101465.09
2023-02-03T17:56:56.321Z,101480.13
2023-02-03T17:59:23.264Z,101466.91
2023-02-03T18:01:50.251Z,101469.59
2023-02-03T18:04:17.017Z,101469.59
2023-02-03T18:06:43.966Z,101475.81
2023-02-03T18:09:13.976Z,101474.88
2023-02-03T18:11:40.795Z,101487.25
2023-02-03T18:14:16.357Z,101493.44
2023-02-03T18:16:44.059Z,101502.25
2023-02-03T18:19:15.024Z,101517.25
2023-02-03T18:21:43.071Z,101506.66
2023-02-03T18:24:12.844Z,101521.59
2023-02-03T18:26:51.157Z,101510.94
2023-02-03T18:29:18.775Z,101527.66
2023-02-03T18:31:46.669Z,101525.88
2023-02-03T18:34:14.290Z,101520.56
2023-02-03T18:39:15.063Z,101537.31
2023-02-03T18:41:42.044Z,101542.59
2023-02-03T18:44:09.228Z,101547.94
2023-02-03T18:46:36.017Z,101555.00
2023-02-03T18:49:02.911Z,101562.03
2023-02-03T18:51:29.738Z,101569.13
2023-02-03T18:53:58.315Z,101590.25
2023-02-03T18:56:34.881Z,101569.91
2023-02-03T18:59:08.503Z,101577.81
2023-02-03T19:01:36.256Z,101586.50
2023-02-03T19:04:03.865Z,101586.47
2023-02-03T19:06:32.740Z,101589.94
2023-02-03T19:09:00.620Z,101582.84
2023-02-03T19:11:27.529Z,101590.78
2023-02-03T19:13:54.333Z,101591.66
2023-02-03T19:16:21.435Z,101603.16
2023-02-03T19:18:48.643Z,101594.31
2023-02-03T19:21:15.728Z,101590.81
2023-02-03T19:23:42.929Z,101606.66
2023-02-03T19:26:10.226Z,101597.78
2023-02-03T19:28:37.867Z,101600.44
2023-02-03T19:31:11.134Z,101601.31
2023-02-03T19:33:38.492Z,101612.78
2023-02-03T19:36:06.717Z,101610.13
2023-02-03T19:38:34.098Z,101608.38
2023-02-03T19:41:02.379Z,101617.19
2023-02-03T19:43:30.942Z,101613.63
2023-02-03T19:45:58.374Z,101624.22
2023-02-03T19:48:25.283Z,101639.19
2023-02-03T19:50:52.053Z,101639.19
2023-02-03T19:53:19.234Z,101636.59
2023-02-03T19:55:46.566Z,101633.91
2023-02-03T19:58:13.894Z,101648.00
2023-02-03T20:00:41.894Z,101655.94
2023-02-03T20:03:09.427Z,101664.72
2023-02-03T20:05:36.472Z,101669.09
2023-02-03T20:08:04.356Z,101674.38
2023-02-03T20:10:32.848Z,101684.13
2023-02-03T20:13:00.314Z,101681.50
2023-02-03T20:15:27.179Z,101671.81
2023-02-03T20:17:54.317Z,101686.81
2023-02-03T20:20:21.188Z,101695.63
2023-02-03T20:22:48.840Z,101690.25
2023-02-03T20:25:16.257Z,101697.19
2023-02-03T20:27:43.228Z,101698.84
2023-02-03T20:30:11.142Z,101711.97
2023-02-03T20:32:38.335Z,101703.06
2023-02-03T20:35:06.279Z,101721.50
2023-02-03T20:37:35.943Z,101715.25
2023-02-03T20:40:16.996Z,101729.28
2023-02-03T20:42:43.821Z,101721.22
2023-02-03T20:45:18.870Z,101741.44
2023-02-03T20:47:46.116Z,101745.78
2023-02-03T20:50:23.596Z,101762.53
2023-02-03T20:52:52.818Z,101771.34
2023-02-03T20:55:22.508Z,101774.78
2023-02-03T20:57:51.462Z,101766.78
2023-02-03T21:00:21.927Z,101779.97
2023-02-03T21:03:07.566Z,101786.94
2023-02-03T21:05:41.924Z,101782.47
2023-02-03T21:08:18.767Z,101797.41
2023-02-03T21:10:47.801Z,101799.09
2023-02-03T21:13:22.953Z,101794.66
2023-02-03T21:15:52.835Z,101800.75
2023-02-03T21:19:07.289Z,101798.06
2023-02-03T21:21:40.210Z,101816.47
2023-02-03T21:24:32.936Z,101824.28
2023-02-03T21:27:00.421Z,101816.28
2023-02-03T21:29:33.251Z,101832.09
2023-02-03T21:32:00.335Z,101829.41
2023-02-03T21:34:35.649Z,101830.31
2023-02-03T21:37:27.400Z,101832.09
2023-02-03T21:39:54.185Z,101847.91
2023-02-03T21:42:40.926Z,101839.91
2023-02-03T21:45:25.167Z,101837.16
2023-02-03T21:47:52.988Z,101847.69
2023-02-03T21:50:36.963Z,101846.84
2023-02-03T21:53:10.158Z,101860.94
2023-02-03T21:55:39.914Z,101867.13
2023-02-03T21:58:28.981Z,101883.88
2023-02-03T22:00:58.766Z,101894.47
2023-02-03T22:03:39.541Z,101890.19
2023-02-03T22:06:09.312Z,101904.28
2023-02-03T22:08:41.893Z,101908.75
2023-02-03T22:11:09.413Z,101919.31
2023-02-03T22:13:36.435Z,101926.34
2023-02-03T22:16:03.826Z,101923.69
2023-02-03T22:18:30.926Z,101935.03
2023-02-03T22:20:57.789Z,101956.06
2023-02-03T22:23:24.589Z,101939.22
2023-02-03T22:25:51.543Z,101946.22
2023-02-03T22:28:18.409Z,101944.25
2023-02-03T22:30:45.362Z,101951.06
2023-02-03T22:33:12.153Z,101953.56
2023-02-03T22:35:38.951Z,101957.81
2023-02-03T22:38:05.714Z,101966.53
2023-02-03T22:40:32.819Z,101970.00
2023-02-03T22:42:59.772Z,101971.69
2023-02-03T22:45:26.519Z,101975.09
2023-02-03T22:47:53.283Z,101987.38
2023-02-03T22:50:27.137Z,102001.34
2023-02-03T22:53:03.926Z,102000.41
2023-02-03T22:55:31.439Z,102003.03
2023-02-03T22:57:59.130Z,102003.03
2023-02-03T23:00:26.751Z,102005.63
2023-02-03T23:02:54.357Z,102017.00
2023-02-03T23:05:21.983Z,102028.47
2023-02-03T23:07:49.515Z,102039.88
2023-02-03T23:10:25.463Z,102033.66
2023-02-03T23:12:52.716Z,102030.13
2023-02-03T23:15:19.576Z,102041.53
2023-02-03T23:17:46.708Z,102045.00
2023-02-03T23:20:16.429Z,102048.50
2023-02-03T23:22:44.209Z,102056.38
2023-02-03T23:25:11.870Z,102065.22
2023-02-03T23:27:39.256Z,102067.88
2023-02-03T23:30:07.020Z,102084.59
2023-02-03T23:32:33.915Z,102102.31
2023-02-03T23:35:21.496Z,102104.06
2023-02-03T23:37:48.271Z,102100.59
2023-02-03T23:40:15.864Z,102111.16
2023-02-03T23:42:42.673Z,102111.22
2023-02-03T23:45:12.018Z,102132.34
2023-02-03T23:47:43.901Z,102128.78
2023-02-03T23:50:14.815Z,102141.09
2023-02-03T23:52:41.581Z,102155.13
2023-02-03T23:55:15.783Z,102157.78
2023-02-03T23:57:42.874Z,102157.59
